Time;durP1;ratioP1;P1;durP2;ratioP2;P2;SDS_P1;SDS_P2;PMS_P1;PMS_P2;Temp;Humidity;BMP_temperature;BMP_pressure;BME280_temperature;BME280_humidity;BME280_pressure;Samples;Min_cycle;Max_cycle;Signal;HPM_P1;HPM_P2
2023/08/31 00:01:38;;;;;;;1.40;1.17;;;23.20;45.50;;;;;;5018227;28;20233;-67
2023/08/31 00:04:05;;;;;;;1.10;1.00;;;23.20;45.50;;;;;;5017770;28;20470;-71
2023/08/31 00:06:31;;;;;;;1.40;1.30;;;23.20;45.50;;;;;;5019704;28;20232;-73
2023/08/31 00:08:57;;;;;;;1.30;1.20;;;23.20;45.50;;;;;;5017932;28;20911;-70
2023/08/31 00:11:25;;;;;;;1.20;1.10;;;23.20;45.50;;;;;;5016008;28;20253;-66
2023/08/31 00:13:52;;;;;;;1.33;1.23;;;23.20;45.50;;;;;;5016587;28;20545;-68
2023/08/31 00:16:17;;;;;;;2.00;1.30;;;23.20;45.50;;;;;;5020792;28;20452;-72
2023/08/31 00:18:45;;;;;;;1.90;1.40;;;23.30;45.50;;;;;;5019519;28;20794;-65
2023/08/31 00:21:10;;;;;;;1.10;1.00;;;23.20;45.50;;;;;;5017191;28;20308;-68
2023/08/31 00:23:37;;;;;;;1.47;1.10;;;23.20;46.20;;;;;;5015182;28;20470;-71
2023/08/31 00:26:05;;;;;;;1.20;1.10;;;23.20;45.50;;;;;;5017394;28;20234;-65
2023/08/31 00:28:31;;;;;;;1.03;0.93;;;23.30;45.60;;;;;;5017969;28;22132;-74
2023/08/31 00:30:59;;;;;;;1.20;1.10;;;23.20;45.50;;;;;;5017894;28;21034;-73
2023/08/31 00:33:26;;;;;;;1.70;1.10;;;23.20;45.50;;;;;;5015743;28;20222;-68
2023/08/31 00:35:52;;;;;;;1.07;1.00;;;23.30;45.50;;;;;;5017173;28;20460;-71
2023/08/31 00:38:17;;;;;;;1.40;1.30;;;23.20;45.50;;;;;;5021444;28;20479;-72
2023/08/31 00:40:46;;;;;;;1.10;1.00;;;23.20;45.50;;;;;;5016388;28;20690;-67
2023/08/31 00:43:17;;;;;;;1.17;1.07;;;23.20;45.50;;;;;;5019704;28;20246;-66
2023/08/31 00:45:44;;;;;;;1.20;1.10;;;23.20;45.50;;;;;;5015680;28;20474;-72
2023/08/31 00:48:10;;;;;;;1.20;1.10;;;23.20;45.50;;;;;;5019410;28;20471;-65
2023/08/31 00:50:36;;;;;;;1.20;1.10;;;23.20;45.50;;;;;;5016055;28;20467;-68
2023/08/31 00:53:03;;;;;;;1.43;1.20;;;23.20;45.50;;;;;;5017880;28;20479;-72
2023/08/31 00:55:29;;;;;;;1.20;1.10;;;23.20;45.60;;;;;;5016570;28;20955;-64
2023/08/31 00:57:55;;;;;;;1.13;1.03;;;23.20;45.50;;;;;;5021125;28;20468;-66
2023/08/31 01:00:25;;;;;;;1.13;1.03;;;23.20;45.50;;;;;;5017349;28;20239;-68
2023/08/31 01:03:07;;;;;;;1.37;1.27;;;23.20;45.60;;;;;;5017587;28;21524;-70
2023/08/31 01:06:09;;;;;;;1.10;1.00;;;23.20;45.50;;;;;;5014711;28;20516;-65
2023/08/31 01:09:03;;;;;;;1.40;1.30;;;23.20;45.50;;;;;;4983765;28;20822;-69
2023/08/31 01:11:44;;;;;;;1.10;1.00;;;23.20;45.60;;;;;;5014875;28;20471;-65
2023/08/31 01:14:15;;;;;;;1.17;1.07;;;23.20;45.60;;;;;;5016929;28;20466;-66
2023/08/31 01:16:44;;;;;;;1.23;1.13;;;23.20;45.50;;;;;;5018282;28;20530;-69
2023/08/31 01:19:39;;;;;;;1.17;1.07;;;23.20;45.60;;;;;;5015126;28;20450;-65
2023/08/31 01:22:11;;;;;;;1.27;1.17;;;23.20;45.50;;;;;;5015286;28;20467;-70
2023/08/31 01:24:37;;;;;;;1.97;1.00;;;23.20;45.50;;;;;;5014956;28;20470;-66
2023/08/31 01:27:03;;;;;;;1.20;1.10;;;23.20;45.60;;;;;;5017019;28;20475;-70
2023/08/31 01:29:30;;;;;;;1.10;1.00;;;23.20;45.60;;;;;;5014613;28;20464;-71
2023/08/31 01:31:55;;;;;;;1.20;1.10;;;23.20;45.50;;;;;;5017781;28;20218;-68
2023/08/31 01:34:21;;;;;;;1.03;1.00;;;23.20;45.60;;;;;;5020046;28;20470;-65
2023/08/31 01:36:58;;;;;;;1.30;1.20;;;23.20;45.60;;;;;;5018762;28;20273;-66
2023/08/31 01:39:35;;;;;;;1.20;1.10;;;23.20;45.50;;;;;;5013774;28;20336;-71
2023/08/31 01:42:04;;;;;;;1.20;1.10;;;23.20;45.60;;;;;;5019784;28;20463;-65
2023/08/31 01:44:32;;;;;;;1.27;1.17;;;23.20;45.60;;;;;;5016451;28;20480;-67
2023/08/31 01:47:05;;;;;;;1.30;1.20;;;23.20;45.60;;;;;;5019394;28;20986;-68
2023/08/31 01:49:36;;;;;;;1.20;1.10;;;23.20;45.60;;;;;;5016052;28;20606;-66
2023/08/31 01:52:02;;;;;;;1.00;0.90;;;23.20;45.60;;;;;;5017085;28;20455;-67
2023/08/31 01:54:28;;;;;;;1.30;1.20;;;23.20;45.60;;;;;;5012116;28;20460;-70
2023/08/31 01:56:54;;;;;;;1.10;1.00;;;23.20;45.60;;;;;;5018186;28;20229;-66
2023/08/31 01:59:19;;;;;;;1.17;1.07;;;23.20;45.60;;;;;;5015179;28;20972;-73
2023/08/31 02:01:45;;;;;;;1.30;1.20;;;23.20;45.60;;;;;;5020715;28;20248;-66
2023/08/31 02:04:10;;;;;;;1.00;0.90;;;23.20;46.30;;;;;;5015404;28;20792;-66
2023/08/31 02:06:36;;;;;;;1.10;1.00;;;23.20;45.60;;;;;;5015778;28;20226;-66
2023/08/31 02:09:01;;;;;;;1.77;1.03;;;23.20;45.60;;;;;;5014575;28;20231;-65
2023/08/31 02:11:27;;;;;;;1.10;1.00;;;23.20;45.60;;;;;;5017197;28;20311;-73
2023/08/31 02:13:52;;;;;;;1.10;1.00;;;23.20;45.60;;;;;;5016268;28;20222;-70
2023/08/31 02:16:18;;;;;;;1.20;1.10;;;23.20;45.60;;;;;;5017534;28;20249;-67
2023/08/31 02:18:43;;;;;;;1.10;0.93;;;23.20;45.60;;;;;;5017667;28;20352;-73
2023/08/31 02:21:09;;;;;;;1.20;1.10;;;23.20;45.60;;;;;;5019516;28;20231;-67
2023/08/31 02:23:34;;;;;;;1.07;0.97;;;23.20;45.70;;;;;;5015065;28;20242;-69
2023/08/31 02:26:00;;;;;;;1.20;1.10;;;23.20;45.60;;;;;;5013243;28;20215;-67
2023/08/31 02:28:25;;;;;;;1.30;1.20;;;23.20;45.60;;;;;;5014637;28;20755;-65
2023/08/31 02:30:59;;;;;;;1.27;1.17;;;23.20;45.60;;;;;;5017035;28;20918;-68
2023/08/31 02:33:24;;;;;;;1.17;1.07;;;23.20;45.60;;;;;;5019345;28;20223;-68
2023/08/31 02:35:50;;;;;;;1.10;1.00;;;23.20;45.60;;;;;;5016793;28;21248;-71
2023/08/31 02:38:16;;;;;;;1.13;1.03;;;23.20;45.60;;;;;;5021853;28;20218;-70
2023/08/31 02:40:41;;;;;;;1.17;1.07;;;23.20;45.60;;;;;;5016743;28;20318;-68
2023/08/31 02:43:07;;;;;;;1.03;1.00;;;23.20;45.60;;;;;;5019898;28;20226;-68
2023/08/31 02:45:32;;;;;;;0.90;0.90;;;23.20;45.60;;;;;;5020129;28;20231;-72
2023/08/31 02:47:58;;;;;;;1.30;1.20;;;23.20;45.60;;;;;;5021949;28;21604;-68
2023/08/31 02:50:24;;;;;;;1.27;1.17;;;23.20;45.60;;;;;;5020062;28;20223;-70
2023/08/31 02:52:49;;;;;;;1.00;0.93;;;23.10;45.40;;;;;;5020172;28;20218;-66
2023/08/31 02:55:15;;;;;;;1.00;0.93;;;23.20;45.50;;;;;;5018822;28;20228;-71
2023/08/31 02:57:40;;;;;;;1.30;1.20;;;23.10;45.60;;;;;;5021368;28;20230;-65
2023/08/31 03:00:10;;;;;;;1.20;1.10;;;23.20;45.50;;;;;;5016027;28;20281;-69
2023/08/31 03:02:36;;;;;;;1.10;1.00;;;23.20;45.50;;;;;;5017900;28;20218;-70
2023/08/31 03:05:02;;;;;;;1.30;1.20;;;23.20;45.60;;;;;;5018346;28;20464;-69
2023/08/31 03:07:27;;;;;;;1.00;1.00;;;23.10;45.50;;;;;;5020676;28;20229;-66
2023/08/31 03:09:53;;;;;;;1.50;1.00;;;23.10;45.50;;;;;;5017847;28;20301;-66
2023/08/31 03:12:18;;;;;;;1.30;1.20;;;23.20;45.60;;;;;;5019518;28;20329;-68
2023/08/31 03:14:44;;;;;;;1.00;0.90;;;23.10;45.50;;;;;;5020773;28;20221;-69
2023/08/31 03:17:09;;;;;;;1.23;1.13;;;23.10;45.50;;;;;;5017356;28;20993;-69
2023/08/31 03:19:35;;;;;;;1.10;1.00;;;23.10;45.50;;;;;;5019816;28;20767;-69
2023/08/31 03:22:00;;;;;;;1.00;1.00;;;23.10;45.50;;;;;;5018849;28;20820;-66
2023/08/31 03:24:26;;;;;;;1.10;1.00;;;23.10;45.50;;;;;;5015863;28;20233;-66
2023/08/31 03:26:52;;;;;;;1.10;1.00;;;23.10;45.50;;;;;;5017413;28;20226;-69
2023/08/31 03:29:17;;;;;;;1.37;1.27;;;23.10;45.50;;;;;;5021913;28;20260;-69
2023/08/31 03:31:43;;;;;;;1.30;1.10;;;23.10;45.50;;;;;;5021261;28;20234;-69
2023/08/31 03:34:08;;;;;;;1.30;1.00;;;23.20;45.60;;;;;;5023585;28;20892;-66
2023/08/31 03:36:34;;;;;;;1.03;1.00;;;23.10;45.50;;;;;;5024182;28;20219;-65
2023/08/31 03:38:59;;;;;;;1.00;0.90;;;23.10;45.40;;;;;;5019774;28;20295;-73
2023/08/31 03:41:25;;;;;;;1.10;1.00;;;23.10;45.40;;;;;;5023219;28;20315;-67
2023/08/31 03:43:50;;;;;;;1.17;1.07;;;23.10;45.40;;;;;;5022685;28;20253;-67
2023/08/31 03:46:16;;;;;;;1.20;1.10;;;23.20;45.60;;;;;;5023502;28;20265;-65
2023/08/31 03:48:41;;;;;;;1.20;1.10;;;23.10;45.50;;;;;;5019155;28;20222;-67
2023/08/31 03:51:07;;;;;;;1.10;1.00;;;23.20;45.60;;;;;;5015522;28;20226;-72
2023/08/31 03:53:33;;;;;;;1.10;1.00;;;23.10;45.50;;;;;;5022896;28;20238;-76
2023/08/31 03:55:58;;;;;;;1.30;1.20;;;23.10;45.40;;;;;;5021918;28;20226;-68
2023/08/31 03:58:24;;;;;;;1.17;1.07;;;23.10;45.50;;;;;;5018764;28;20225;-69
2023/08/31 04:00:53;;;;;;;1.23;1.13;;;23.10;45.40;;;;;;5018208;28;20273;-70
2023/08/31 04:03:18;;;;;;;0.97;0.93;;;23.10;45.40;;;;;;5016961;28;20227;-75
2023/08/31 04:05:44;;;;;;;1.20;1.10;;;23.10;45.40;;;;;;5015822;28;20470;-67
2023/08/31 04:08:09;;;;;;;1.00;0.90;;;23.20;45.50;;;;;;5015246;28;20226;-67
2023/08/31 04:10:35;;;;;;;0.90;0.90;;;23.20;45.40;;;;;;5015305;28;20211;-73
2023/08/31 04:13:01;;;;;;;1.33;1.10;;;23.10;45.30;;;;;;5014673;28;20234;-70
2023/08/31 04:15:26;;;;;;;1.53;1.20;;;23.20;45.40;;;;;;5021117;28;20249;-69
2023/08/31 04:17:52;;;;;;;1.43;1.20;;;23.20;45.30;;;;;;5019805;28;20230;-69
2023/08/31 04:20:17;;;;;;;0.80;0.80;;;23.20;45.20;;;;;;5018952;28;20262;-66
2023/08/31 04:22:43;;;;;;;1.20;1.10;;;23.20;45.20;;;;;;5017501;28;20629;-65
2023/08/31 04:25:09;;;;;;;1.50;1.40;;;23.20;45.20;;;;;;5020982;28;20257;-70
2023/08/31 04:27:34;;;;;;;1.27;1.03;;;23.20;45.20;;;;;;5017735;28;20556;-71
2023/08/31 04:30:03;;;;;;;0.90;0.83;;;23.20;45.10;;;;;;5018146;28;20754;-66
2023/08/31 04:32:29;;;;;;;1.10;1.00;;;23.20;45.10;;;;;;5020968;28;21004;-69
2023/08/31 04:34:54;;;;;;;1.10;1.00;;;23.20;45.10;;;;;;5016072;28;20466;-72
2023/08/31 04:37:21;;;;;;;1.07;0.97;;;23.20;45.10;;;;;;5022349;28;20634;-71
2023/08/31 04:39:47;;;;;;;1.20;1.10;;;23.20;45.20;;;;;;5016362;28;20245;-67
2023/08/31 04:42:12;;;;;;;1.20;1.10;;;23.20;45.20;;;;;;5019593;28;20456;-65
2023/08/31 04:44:38;;;;;;;1.23;1.13;;;23.20;45.20;;;;;;5019495;28;20238;-69
2023/08/31 04:47:04;;;;;;;1.17;1.00;;;23.20;45.20;;;;;;5018917;28;20564;-67
2023/08/31 04:49:29;;;;;;;1.20;1.10;;;23.20;45.10;;;;;;5014113;28;20226;-71
2023/08/31 04:51:56;;;;;;;1.20;1.10;;;23.20;45.10;;;;;;5015474;28;20474;-66
2023/08/31 04:54:21;;;;;;;1.17;1.07;;;23.20;45.10;;;;;;5018682;28;20217;-69
2023/08/31 04:56:47;;;;;;;2.23;1.20;;;23.20;45.10;;;;;;5012478;28;20463;-70
2023/08/31 04:59:12;;;;;;;1.37;1.27;;;23.20;45.10;;;;;;5013233;28;20659;-66
2023/08/31 05:01:38;;;;;;;1.90;1.10;;;23.30;45.20;;;;;;5012420;28;20790;-68
2023/08/31 05:04:04;;;;;;;1.33;1.00;;;23.20;45.20;;;;;;5015927;28;20263;-68
2023/08/31 05:06:29;;;;;;;3.47;1.20;;;23.20;45.10;;;;;;5014241;28;21179;-67
2023/08/31 05:08:55;;;;;;;1.33;1.20;;;23.20;45.10;;;;;;5019439;28;20242;-78
2023/08/31 05:11:21;;;;;;;1.83;1.00;;;23.20;45.10;;;;;;5018264;28;20756;-67
2023/08/31 05:13:48;;;;;;;1.57;1.33;;;23.20;45.10;;;;;;5018605;28;20227;-69
2023/08/31 05:16:13;;;;;;;1.03;0.93;;;23.20;45.10;;;;;;5013283;28;20237;-68
2023/08/31 05:18:42;;;;;;;1.83;1.30;;;23.20;45.00;;;;;;5014619;28;20504;-70
2023/08/31 05:21:07;;;;;;;2.80;1.40;;;23.20;45.00;;;;;;5009266;28;20242;-70
2023/08/31 05:23:33;;;;;;;1.53;1.20;;;23.20;45.00;;;;;;5014734;28;20517;-74
2023/08/31 05:26:01;;;;;;;1.97;1.10;;;23.20;45.60;;;;;;5013559;28;20312;-72
2023/08/31 05:28:27;;;;;;;1.67;1.10;;;23.20;44.90;;;;;;5016839;28;20214;-75
2023/08/31 05:30:54;;;;;;;1.40;1.30;;;23.20;44.80;;;;;;5017158;28;20999;-74
2023/08/31 05:33:22;;;;;;;1.50;1.20;;;23.20;44.70;;;;;;5013147;28;20553;-71
2023/08/31 05:35:48;;;;;;;1.77;1.20;;;23.20;44.60;;;;;;5012362;28;20552;-72
2023/08/31 05:38:13;;;;;;;1.93;1.30;;;23.20;44.60;;;;;;5015054;28;20543;-71
2023/08/31 05:40:39;;;;;;;1.20;1.10;;;23.20;44.30;;;;;;5016548;28;20282;-71
2023/08/31 05:43:05;;;;;;;2.80;1.30;;;23.20;44.20;;;;;;5018482;28;20218;-69
2023/08/31 05:45:34;;;;;;;1.50;1.23;;;23.20;44.10;;;;;;5018803;28;20283;-68
2023/08/31 05:48:00;;;;;;;1.10;1.00;;;23.20;44.10;;;;;;5020509;28;20222;-70
2023/08/31 05:50:26;;;;;;;1.40;1.30;;;23.20;44.00;;;;;;5021013;28;20473;-72
2023/08/31 05:52:52;;;;;;;1.27;1.17;;;23.20;43.90;;;;;;5022168;28;20455;-73
2023/08/31 05:55:17;;;;;;;1.10;0.97;;;23.20;43.90;;;;;;5017983;28;20448;-71
2023/08/31 05:57:43;;;;;;;1.10;1.00;;;23.20;43.90;;;;;;5021416;28;20241;-69
2023/08/31 06:00:09;;;;;;;1.33;1.23;;;23.20;43.90;;;;;;5017703;28;20662;-69
2023/08/31 06:02:35;;;;;;;1.30;1.20;;;23.20;43.90;;;;;;5017836;28;20237;-73
2023/08/31 06:05:01;;;;;;;1.40;1.10;;;23.30;44.00;;;;;;5015629;28;20456;-69
2023/08/31 06:07:28;;;;;;;1.10;1.00;;;23.30;44.00;;;;;;5018326;28;20687;-69
2023/08/31 06:09:54;;;;;;;1.20;1.10;;;23.30;43.90;;;;;;5019358;28;20473;-70
2023/08/31 06:12:20;;;;;;;1.30;1.20;;;23.30;44.00;;;;;;5023321;28;20492;-71
2023/08/31 06:14:45;;;;;;;1.10;1.00;;;23.30;44.00;;;;;;5022118;28;20463;-73
2023/08/31 06:17:12;;;;;;;1.20;1.10;;;23.30;44.00;;;;;;5018776;28;20218;-71
2023/08/31 06:19:39;;;;;;;1.30;1.20;;;23.30;44.00;;;;;;5018929;28;20234;-71
2023/08/31 06:22:04;;;;;;;1.07;1.07;;;23.30;44.00;;;;;;5020517;28;20474;-70
2023/08/31 06:24:30;;;;;;;1.30;1.20;;;23.30;44.00;;;;;;5021615;28;20462;-72
2023/08/31 06:26:56;;;;;;;1.50;1.40;;;23.30;44.10;;;;;;5021658;28;20223;-69
2023/08/31 06:29:22;;;;;;;1.20;1.10;;;23.30;44.10;;;;;;5019574;28;20255;-69
2023/08/31 06:31:47;;;;;;;1.30;1.20;;;23.30;44.10;;;;;;5024052;28;20509;-69
2023/08/31 06:34:13;;;;;;;1.20;1.10;;;23.30;44.10;;;;;;5022369;28;20222;-68
2023/08/31 06:36:39;;;;;;;1.30;1.20;;;23.30;44.10;;;;;;5017855;28;20764;-75
2023/08/31 06:39:06;;;;;;;1.90;1.10;;;23.30;44.20;;;;;;5021199;28;20218;-70
2023/08/31 06:41:32;;;;;;;1.30;1.20;;;23.30;44.10;;;;;;5024047;28;21541;-71
2023/08/31 06:43:57;;;;;;;1.37;1.10;;;23.30;44.10;;;;;;5020498;28;20542;-69
2023/08/31 06:46:23;;;;;;;1.20;1.00;;;23.30;44.10;;;;;;5019742;28;20715;-69
2023/08/31 06:48:49;;;;;;;1.40;1.30;;;23.30;44.10;;;;;;5021861;28;20219;-71
2023/08/31 06:51:15;;;;;;;3.00;1.30;;;23.30;44.30;;;;;;5022449;28;20226;-69
2023/08/31 06:53:43;;;;;;;1.10;1.00;;;23.30;44.20;;;;;;5020981;28;20311;-70
2023/08/31 06:56:09;;;;;;;1.37;1.17;;;23.30;44.20;;;;;;5020994;28;20971;-72
2023/08/31 06:58:34;;;;;;;1.20;1.10;;;23.30;44.10;;;;;;5024664;28;20537;-69
2023/08/31 07:01:00;;;;;;;1.80;1.30;;;23.30;44.10;;;;;;5014652;28;20239;-69
2023/08/31 07:03:26;;;;;;;1.30;1.20;;;23.30;44.10;;;;;;5020690;28;20708;-69
2023/08/31 07:05:52;;;;;;;1.57;0.90;;;23.30;44.20;;;;;;5021941;28;20550;-69
2023/08/31 07:08:17;;;;;;;1.47;1.37;;;23.30;44.20;;;;;;5023685;28;20309;-73
2023/08/31 07:10:43;;;;;;;1.00;0.90;;;23.30;44.30;;;;;;5024018;28;21433;-68
2023/08/31 07:13:08;;;;;;;1.30;1.20;;;23.30;44.20;;;;;;5022001;28;20256;-68
2023/08/31 07:15:34;;;;;;;1.10;1.00;;;23.30;44.20;;;;;;5020453;28;20302;-70
2023/08/31 07:18:00;;;;;;;1.23;1.13;;;23.30;44.20;;;;;;5022779;28;20227;-69
2023/08/31 07:20:25;;;;;;;1.10;1.00;;;23.30;44.20;;;;;;5021039;28;20682;-74
2023/08/31 07:22:51;;;;;;;1.30;1.20;;;23.30;44.20;;;;;;5020166;28;20268;-72
2023/08/31 07:25:17;;;;;;;1.10;1.00;;;23.30;44.30;;;;;;5018067;28;20222;-69
2023/08/31 07:27:43;;;;;;;1.00;0.97;;;23.30;44.30;;;;;;5022226;28;20246;-70
2023/08/31 07:30:09;;;;;;;1.20;1.10;;;23.30;44.30;;;;;;5022212;28;20235;-70
2023/08/31 07:32:35;;;;;;;1.20;1.10;;;23.30;44.30;;;;;;5021954;28;20578;-71
2023/08/31 07:35:01;;;;;;;1.20;1.10;;;23.30;44.30;;;;;;5019586;28;20547;-73
2023/08/31 07:37:26;;;;;;;1.00;0.90;;;23.30;44.30;;;;;;5022435;28;20230;-71
2023/08/31 07:39:52;;;;;;;1.10;1.00;;;23.30;44.30;;;;;;5018290;28;20769;-70
2023/08/31 07:42:18;;;;;;;1.20;1.10;;;23.30;44.30;;;;;;5024853;28;20226;-69
2023/08/31 07:44:44;;;;;;;1.20;1.10;;;23.30;44.40;;;;;;5018358;28;20657;-71
2023/08/31 07:47:10;;;;;;;1.10;1.00;;;23.30;44.30;;;;;;5017057;28;20229;-70
2023/08/31 07:49:35;;;;;;;1.20;1.10;;;23.30;44.40;;;;;;5017894;28;20883;-69
2023/08/31 07:52:01;;;;;;;1.10;1.00;;;23.40;44.50;;;;;;5016078;28;20218;-71
2023/08/31 07:54:26;;;;;;;1.20;1.10;;;23.30;44.40;;;;;;5021024;28;20233;-73
2023/08/31 07:56:52;;;;;;;1.30;1.20;;;23.30;44.40;;;;;;5019033;28;20245;-70
2023/08/31 07:59:18;;;;;;;1.27;1.17;;;23.30;44.40;;;;;;5020678;28;20329;-70
2023/08/31 08:01:44;;;;;;;1.17;1.07;;;23.40;44.50;;;;;;5017143;28;20241;-72
2023/08/31 08:04:11;;;;;;;1.10;1.00;;;23.30;44.40;;;;;;5018845;28;20471;-72
2023/08/31 08:06:37;;;;;;;1.20;1.10;;;23.30;44.40;;;;;;5021588;28;20460;-74
2023/08/31 08:09:04;;;;;;;1.47;1.00;;;23.30;44.50;;;;;;5019225;28;20521;-70
2023/08/31 08:11:30;;;;;;;1.10;1.00;;;23.30;44.40;;;;;;5019094;28;20228;-70
2023/08/31 08:13:55;;;;;;;1.30;1.20;;;23.30;44.40;;;;;;5019470;28;20464;-70
2023/08/31 08:16:21;;;;;;;1.20;1.10;;;23.40;44.50;;;;;;5017944;28;20223;-73
2023/08/31 08:18:47;;;;;;;1.20;1.10;;;23.30;44.40;;;;;;5021676;28;20229;-70
2023/08/31 08:21:12;;;;;;;1.40;1.30;;;23.30;44.40;;;;;;5018669;28;20288;-70
2023/08/31 08:23:38;;;;;;;1.67;1.13;;;23.30;44.40;;;;;;5019202;28;20230;-70
2023/08/31 08:26:03;;;;;;;1.30;1.20;;;23.30;44.40;;;;;;5015106;28;20295;-71
2023/08/31 08:28:29;;;;;;;1.00;0.90;;;23.40;44.50;;;;;;5017582;28;20859;-74
2023/08/31 08:30:54;;;;;;;1.00;0.90;;;23.40;44.50;;;;;;5019747;28;20758;-70
2023/08/31 08:33:20;;;;;;;1.10;1.00;;;23.40;44.50;;;;;;5022944;28;20219;-71
2023/08/31 08:35:46;;;;;;;0.90;0.90;;;23.40;44.50;;;;;;5019389;28;20246;-72
2023/08/31 08:38:12;;;;;;;1.97;1.10;;;23.30;44.40;;;;;;5019988;28;20349;-72
2023/08/31 08:40:37;;;;;;;1.13;1.03;;;23.40;44.50;;;;;;5020770;28;20364;-70
2023/08/31 08:43:07;;;;;;;1.63;1.23;;;23.40;45.20;;;;;;5019121;28;20226;-70
2023/08/31 08:45:38;;;;;;;1.10;1.00;;;23.40;44.50;;;;;;5018488;28;20230;-72
2023/08/31 08:48:06;;;;;;;1.20;1.10;;;23.40;44.50;;;;;;5021574;28;20978;-70
2023/08/31 08:50:33;;;;;;;1.10;1.00;;;23.40;44.50;;;;;;5014855;28;20524;-70
2023/08/31 08:53:00;;;;;;;1.10;1.00;;;23.40;44.50;;;;;;5021809;28;20556;-70
2023/08/31 08:55:25;;;;;;;1.03;1.00;;;23.40;44.50;;;;;;5015961;28;21088;-70
2023/08/31 08:57:51;;;;;;;1.30;1.20;;;23.40;44.50;;;;;;5019980;28;21977;-73
2023/08/31 09:00:17;;;;;;;1.50;1.30;;;23.40;44.50;;;;;;5021470;28;20235;-70
2023/08/31 09:02:43;;;;;;;1.20;1.10;;;23.40;44.50;;;;;;5020314;28;20632;-71
2023/08/31 09:05:08;;;;;;;1.13;1.03;;;23.40;44.50;;;;;;5022010;28;20225;-70
2023/08/31 09:07:37;;;;;;;1.37;1.20;;;23.40;44.50;;;;;;5021348;28;20229;-72
2023/08/31 09:10:04;;;;;;;1.00;1.00;;;23.40;44.60;;;;;;5018504;28;20725;-73
2023/08/31 09:12:30;;;;;;;1.10;1.00;;;23.40;44.50;;;;;;5018737;28;20918;-70
2023/08/31 09:15:04;;;;;;;1.20;1.10;;;23.40;44.60;;;;;;5012870;28;20455;-70
2023/08/31 09:17:44;;;;;;;1.40;1.30;;;23.40;44.50;;;;;;5016193;28;20341;-71
2023/08/31 09:20:10;;;;;;;1.53;1.10;;;23.40;44.60;;;;;;5020100;28;20561;-70
2023/08/31 09:22:36;;;;;;;1.20;1.10;;;23.40;44.60;;;;;;5014783;28;20479;-72
2023/08/31 09:25:03;;;;;;;1.07;1.00;;;23.40;44.60;;;;;;5016698;28;20961;-72
2023/08/31 09:27:31;;;;;;;1.30;1.10;;;23.40;44.50;;;;;;5018803;28;20233;-69
2023/08/31 09:29:56;;;;;;;1.00;0.93;;;23.40;44.60;;;;;;5015202;28;20470;-70
2023/08/31 09:32:22;;;;;;;1.13;1.03;;;23.40;45.30;;;;;;5018400;28;20471;-73
2023/08/31 09:34:49;;;;;;;1.03;1.00;;;23.40;44.50;;;;;;5017598;28;20222;-70
2023/08/31 09:37:16;;;;;;;1.30;1.20;;;23.40;44.60;;;;;;5019289;28;20313;-70
2023/08/31 09:39:42;;;;;;;1.13;1.03;;;23.40;44.60;;;;;;5014072;28;20514;-70
2023/08/31 09:42:08;;;;;;;1.07;1.00;;;23.40;44.60;;;;;;5020410;28;20463;-74
2023/08/31 09:44:33;;;;;;;1.20;1.10;;;23.40;44.60;;;;;;5014102;28;20691;-72
2023/08/31 09:47:00;;;;;;;1.20;1.10;;;23.40;44.50;;;;;;4987040;28;20328;-70
2023/08/31 09:49:26;;;;;;;1.43;1.17;;;23.40;44.60;;;;;;5018758;28;20325;-75
2023/08/31 09:51:52;;;;;;;1.30;1.20;;;23.40;44.60;;;;;;5020637;28;21044;-71
2023/08/31 09:54:24;;;;;;;1.27;1.17;;;23.40;44.60;;;;;;5018062;28;20462;-73
2023/08/31 09:56:50;;;;;;;1.00;0.90;;;23.40;44.60;;;;;;5014433;28;20495;-76
2023/08/31 09:59:16;;;;;;;1.20;1.10;;;23.40;44.70;;;;;;5015484;28;21019;-72
2023/08/31 10:01:46;;;;;;;0.97;0.97;;;23.40;44.60;;;;;;5020410;28;20554;-72
2023/08/31 10:04:13;;;;;;;1.27;1.17;;;23.40;44.60;;;;;;5018218;28;20333;-73
2023/08/31 10:06:40;;;;;;;1.20;1.10;;;23.40;45.40;;;;;;5022584;28;21424;-76
2023/08/31 10:09:06;;;;;;;1.10;1.00;;;23.40;44.70;;;;;;5020437;28;20467;-73
2023/08/31 10:11:32;;;;;;;1.83;1.73;;;23.40;44.70;;;;;;5016437;28;22041;-76
2023/08/31 10:13:58;;;;;;;1.00;1.00;;;23.40;44.70;;;;;;5018062;28;20456;-78
2023/08/31 10:16:27;;;;;;;1.07;0.97;;;23.40;44.70;;;;;;5019461;28;20460;-75
2023/08/31 10:18:54;;;;;;;1.40;1.30;;;23.40;44.70;;;;;;5016303;28;20731;-78
2023/08/31 10:21:20;;;;;;;1.30;1.20;;;23.40;44.80;;;;;;5016313;28;20476;-73
2023/08/31 10:23:49;;;;;;;1.37;1.00;;;23.40;44.80;;;;;;5016825;28;20462;-75
2023/08/31 10:26:27;;;;;;;1.20;1.10;;;23.40;45.50;;;;;;5022786;28;20226;-72
2023/08/31 10:28:53;;;;;;;2.30;1.20;;;23.40;44.80;;;;;;5020155;28;20466;-72
2023/08/31 10:31:20;;;;;;;2.10;1.10;;;23.40;44.80;;;;;;5022728;28;20768;-75
2023/08/31 10:34:09;;;;;;;1.20;1.10;;;23.40;44.80;;;;;;5021888;28;20785;-74
2023/08/31 10:36:40;;;;;;;1.20;1.10;;;23.40;44.80;;;;;;5016584;28;20475;-74
2023/08/31 10:39:15;;;;;;;1.20;1.10;;;23.40;44.80;;;;;;5020746;28;20463;-75
2023/08/31 10:41:41;;;;;;;1.90;1.13;;;23.40;44.80;;;;;;5022096;28;20479;-72
2023/08/31 10:44:22;;;;;;;0.87;0.87;;;23.40;44.80;;;;;;5017568;28;20494;-71
2023/08/31 10:46:49;;;;;;;1.20;1.10;;;23.40;44.80;;;;;;5019109;28;20954;-70
2023/08/31 10:49:19;;;;;;;1.30;1.20;;;23.40;44.80;;;;;;5019597;28;20463;-71
2023/08/31 10:51:56;;;;;;;1.30;1.20;;;23.40;44.80;;;;;;5023339;28;20952;-74
2023/08/31 10:54:30;;;;;;;1.17;1.07;;;23.40;44.80;;;;;;5020957;28;20458;-72
2023/08/31 10:57:07;;;;;;;1.20;1.10;;;23.40;44.80;;;;;;5020886;28;20474;-73
2023/08/31 10:59:51;;;;;;;1.13;1.00;;;23.40;44.80;;;;;;5021025;28;20464;-70
2023/08/31 11:02:43;;;;;;;1.10;1.10;;;23.30;44.70;;;;;;5023083;28;20459;-78
2023/08/31 11:05:18;;;;;;;1.33;1.23;;;23.30;44.80;;;;;;5014422;28;20458;-77
2023/08/31 11:07:49;;;;;;;1.30;1.20;;;23.30;44.80;;;;;;5018672;28;20506;-72
2023/08/31 11:10:19;;;;;;;1.17;1.07;;;23.30;44.70;;;;;;5014864;28;20474;-77
2023/08/31 11:12:47;;;;;;;1.03;1.00;;;23.30;44.80;;;;;;5019062;28;20775;-75
2023/08/31 11:15:14;;;;;;;1.33;1.23;;;23.30;44.80;;;;;;5008867;28;21497;-76
2023/08/31 11:17:41;;;;;;;1.20;1.10;;;23.30;44.80;;;;;;5013493;28;20473;-74
2023/08/31 11:20:14;;;;;;;1.30;1.20;;;23.30;44.80;;;;;;5012673;28;20475;-73
2023/08/31 11:22:41;;;;;;;1.10;1.00;;;23.30;44.80;;;;;;5016195;28;20959;-76
2023/08/31 11:25:09;;;;;;;1.10;1.00;;;23.30;44.70;;;;;;5011496;28;20459;-72
2023/08/31 11:27:34;;;;;;;2.33;1.30;;;23.30;44.80;;;;;;5010699;28;20499;-73
2023/08/31 11:30:00;;;;;;;1.30;1.20;;;23.30;44.80;;;;;;5013328;28;20542;-77
2023/08/31 11:32:26;;;;;;;1.20;1.10;;;23.30;44.80;;;;;;5016379;28;20229;-76
2023/08/31 11:34:51;;;;;;;1.20;1.10;;;23.30;44.90;;;;;;5017228;28;20218;-73
2023/08/31 11:37:19;;;;;;;1.20;1.10;;;23.30;44.80;;;;;;5019396;28;20356;-72
2023/08/31 11:39:52;;;;;;;1.70;1.10;;;23.30;44.90;;;;;;5016195;28;20213;-75
2023/08/31 11:42:20;;;;;;;1.30;1.20;;;23.30;44.80;;;;;;5016676;28;20460;-75
2023/08/31 11:44:51;;;;;;;1.30;1.20;;;23.30;44.80;;;;;;5016614;28;20463;-76
2023/08/31 11:47:18;;;;;;;1.10;1.00;;;23.30;44.80;;;;;;5017210;28;20464;-73
2023/08/31 11:49:45;;;;;;;1.30;1.20;;;23.30;44.80;;;;;;5015560;28;20970;-73
2023/08/31 11:52:12;;;;;;;1.20;1.10;;;23.30;44.80;;;;;;5014866;28;20481;-72
2023/08/31 11:54:39;;;;;;;1.30;1.20;;;23.30;44.80;;;;;;5017347;28;20509;-71
2023/08/31 11:57:08;;;;;;;1.23;1.13;;;23.30;44.80;;;;;;5017938;28;21044;-72
2023/08/31 11:59:36;;;;;;;1.30;1.20;;;23.30;44.80;;;;;;5021854;28;20594;-72
2023/08/31 12:02:01;;;;;;;1.30;1.20;;;23.30;44.80;;;;;;5012682;28;20463;-76
2023/08/31 12:04:27;;;;;;;1.43;1.33;;;23.30;44.90;;;;;;5010246;28;20467;-72
2023/08/31 12:07:00;;;;;;;1.13;1.03;;;23.30;44.80;;;;;;5017168;28;20218;-76
2023/08/31 12:09:28;;;;;;;1.00;1.00;;;23.30;44.80;;;;;;5019678;28;21495;-76
2023/08/31 12:11:53;;;;;;;1.57;1.40;;;23.30;44.80;;;;;;5023629;28;20886;-73
2023/08/31 12:14:21;;;;;;;1.30;1.20;;;23.30;44.80;;;;;;5018572;28;20498;-71
2023/08/31 12:16:47;;;;;;;1.57;1.47;;;23.30;44.80;;;;;;5020161;28;20349;-71
2023/08/31 12:19:13;;;;;;;1.57;1.47;;;23.30;44.80;;;;;;5020704;28;20459;-77
2023/08/31 12:21:39;;;;;;;1.23;1.13;;;23.30;44.80;;;;;;5018543;28;20958;-73
2023/08/31 12:24:05;;;;;;;1.30;1.20;;;23.30;44.80;;;;;;5027289;28;20226;-72
2023/08/31 12:26:31;;;;;;;1.80;1.20;;;23.30;44.80;;;;;;5021452;28;20487;-75
2023/08/31 12:28:57;;;;;;;1.97;1.17;;;23.30;44.90;;;;;;5020868;28;20571;-67
2023/08/31 12:31:23;;;;;;;1.50;1.40;;;23.30;44.80;;;;;;5022549;28;20219;-70
2023/08/31 12:33:49;;;;;;;1.40;1.30;;;23.30;44.80;;;;;;5018295;28;20478;-71
2023/08/31 12:36:15;;;;;;;1.40;1.30;;;23.30;44.80;;;;;;5023783;28;20225;-72
2023/08/31 12:38:40;;;;;;;1.20;1.10;;;23.30;44.80;;;;;;5026406;28;20275;-73
2023/08/31 12:41:06;;;;;;;1.50;1.40;;;23.30;44.80;;;;;;5017336;28;20237;-76
2023/08/31 12:43:32;;;;;;;1.40;1.30;;;23.30;44.90;;;;;;5023422;28;20229;-75
2023/08/31 12:45:58;;;;;;;1.20;1.10;;;23.30;44.80;;;;;;5016030;28;20234;-78
2023/08/31 12:48:23;;;;;;;1.07;1.07;;;23.30;44.90;;;;;;5022106;28;20320;-78